Time;durP1;ratioP1;P1;durP2;ratioP2;P2;SDS_P1;SDS_P2;PMS_P1;PMS_P2;Temp;Humidity;BMP_temperature;BMP_pressure;BME280_temperature;BME280_humidity;BME280_pressure;Samples;Min_cycle;Max_cycle;Signal;HPM_P1;HPM_P2
2023/06/27 00:01:40;;;;;;;2.20;1.00;;;20.10;57.60;;;;;;5002505;28;20586;-19
2023/06/27 00:04:09;;;;;;;2.45;1.00;;;20.10;57.80;;;;;;5024870;28;20580;-18
2023/06/27 00:06:40;;;;;;;2.13;1.05;;;20.10;58.20;;;;;;5038537;28;20029;-17
2023/06/27 00:09:09;;;;;;;1.95;0.90;;;20.10;58.00;;;;;;5021657;28;20414;-18
2023/06/27 00:11:39;;;;;;;3.45;1.30;;;20.10;58.00;;;;;;5035691;28;20025;-18
2023/06/27 00:14:05;;;;;;;2.57;0.90;;;20.10;58.00;;;;;;5027232;28;20805;-18
2023/06/27 00:16:34;;;;;;;2.97;1.00;;;20.00;58.10;;;;;;5008051;28;20031;-18
2023/06/27 00:19:04;;;;;;;3.67;1.13;;;20.00;58.10;;;;;;5023345;28;20157;-18
2023/06/27 00:21:34;;;;;;;2.20;0.90;;;20.00;58.20;;;;;;5037249;28;20036;-18
2023/06/27 00:24:00;;;;;;;1.88;1.00;;;20.00;58.70;;;;;;5016035;28;20029;-18
2023/06/27 00:26:28;;;;;;;2.00;0.70;;;20.00;58.40;;;;;;5017155;28;20497;-18
2023/06/27 00:28:54;;;;;;;1.92;0.90;;;20.00;58.60;;;;;;5026855;28;20027;-18
2023/06/27 00:31:20;;;;;;;1.83;0.90;;;19.90;58.70;;;;;;5034246;28;20017;-18
2023/06/27 00:33:46;;;;;;;2.47;1.10;;;19.90;58.70;;;;;;5000938;28;20406;-19
2023/06/27 00:36:14;;;;;;;2.33;0.93;;;19.90;58.80;;;;;;5031407;28;20056;-18
2023/06/27 00:38:40;;;;;;;3.58;1.23;;;19.90;59.00;;;;;;5008643;28;20585;-18
2023/06/27 00:41:05;;;;;;;3.38;1.23;;;19.80;58.90;;;;;;5034999;28;20546;-18
2023/06/27 00:43:31;;;;;;;2.97;1.10;;;19.90;59.10;;;;;;5027090;28;20036;-18
2023/06/27 00:45:57;;;;;;;3.88;1.10;;;19.80;59.10;;;;;;5030235;28;20037;-18
2023/06/27 00:48:23;;;;;;;2.22;0.90;;;19.80;59.30;;;;;;5007661;28;20526;-18
2023/06/27 00:50:55;;;;;;;3.50;0.90;;;19.80;59.30;;;;;;5023948;28;20271;-18
2023/06/27 00:53:21;;;;;;;3.97;0.90;;;19.80;59.60;;;;;;5037006;28;20040;-18
2023/06/27 00:55:47;;;;;;;1.80;0.90;;;19.80;59.40;;;;;;5023586;28;20153;-17
2023/06/27 00:58:13;;;;;;;3.10;1.00;;;19.80;59.50;;;;;;5030745;28;20017;-17
2023/06/27 01:00:38;;;;;;;1.73;0.80;;;19.70;59.50;;;;;;5027274;28;20512;-18
2023/06/27 01:03:04;;;;;;;2.47;1.00;;;19.70;59.50;;;;;;5007281;28;20232;-18
2023/06/27 01:05:31;;;;;;;1.73;0.80;;;19.70;59.50;;;;;;5026104;28;20059;-18
2023/06/27 01:08:09;;;;;;;3.55;1.20;;;19.70;59.60;;;;;;5016410;28;20021;-18
2023/06/27 01:10:46;;;;;;;2.13;0.80;;;19.60;60.50;;;;;;5026138;28;20082;-18
2023/06/27 01:13:32;;;;;;;3.00;1.10;;;19.60;60.30;;;;;;5016675;28;20049;-18
2023/06/27 01:15:59;;;;;;;2.53;0.80;;;19.60;61.30;;;;;;5021412;28;20388;-18
2023/06/27 01:18:27;;;;;;;2.20;0.90;;;19.50;60.00;;;;;;5008606;28;20041;-18
2023/06/27 01:20:53;;;;;;;2.90;1.00;;;19.50;60.30;;;;;;5017017;28;20037;-18
2023/06/27 01:23:29;;;;;;;3.05;0.80;;;19.50;60.20;;;;;;5033750;28;20036;-18
2023/06/27 01:26:07;;;;;;;2.45;0.93;;;19.50;61.00;;;;;;5024232;28;20045;-19
2023/06/27 01:28:33;;;;;;;1.83;0.83;;;19.50;61.60;;;;;;5036314;28;20509;-18
2023/06/27 01:31:03;;;;;;;2.50;1.00;;;19.40;60.40;;;;;;5020003;28;20037;-18
2023/06/27 01:33:32;;;;;;;2.55;1.20;;;19.40;61.10;;;;;;5009155;28;20036;-18
2023/06/27 01:36:04;;;;;;;2.05;1.00;;;19.40;60.80;;;;;;5024146;28;20021;-19
2023/06/27 01:38:44;;;;;;;2.38;0.80;;;19.40;61.30;;;;;;5034083;28;20025;-18
2023/06/27 01:41:13;;;;;;;3.50;1.07;;;19.40;61.80;;;;;;5021036;28;20059;-18
2023/06/27 01:43:41;;;;;;;3.70;0.90;;;19.40;61.10;;;;;;5036105;28;20518;-18
2023/06/27 01:46:08;;;;;;;2.38;0.90;;;19.30;61.30;;;;;;5019263;28;20032;-18
2023/06/27 01:48:34;;;;;;;3.80;1.10;;;19.30;61.30;;;;;;5036540;28;20498;-18
2023/06/27 01:51:00;;;;;;;1.70;0.90;;;19.30;61.30;;;;;;4999549;28;20025;-18
2023/06/27 01:53:26;;;;;;;2.10;0.90;;;19.30;61.30;;;;;;5042406;28;20955;-18
2023/06/27 01:55:52;;;;;;;2.58;0.90;;;19.30;61.40;;;;;;5028849;28;20047;-18
2023/06/27 01:58:18;;;;;;;2.17;1.13;;;19.20;61.50;;;;;;5017560;28;20127;-18
2023/06/27 02:00:44;;;;;;;2.37;0.90;;;19.20;61.50;;;;;;5026945;28;20045;-18
2023/06/27 02:03:09;;;;;;;2.05;0.93;;;19.20;61.60;;;;;;5029653;28;20068;-18
2023/06/27 02:05:35;;;;;;;3.17;1.00;;;19.20;61.80;;;;;;5010116;28;20032;-18
2023/06/27 02:08:01;;;;;;;2.63;0.90;;;19.20;61.90;;;;;;5022595;28;20398;-18
2023/06/27 02:10:26;;;;;;;2.55;0.95;;;19.10;62.00;;;;;;5030680;28;20157;-18
2023/06/27 02:12:52;;;;;;;3.50;1.13;;;19.10;62.00;;;;;;5007972;28;20025;-18
2023/06/27 02:15:18;;;;;;;3.20;0.90;;;19.10;62.10;;;;;;5030280;28;20033;-18
2023/06/27 02:17:43;;;;;;;1.97;0.80;;;19.10;62.10;;;;;;5029587;28;20044;-18
2023/06/27 02:20:09;;;;;;;1.90;0.90;;;19.10;62.20;;;;;;5036373;28;20335;-18
2023/06/27 02:22:35;;;;;;;4.05;1.20;;;19.10;62.40;;;;;;5000753;28;20029;-18
2023/06/27 02:25:01;;;;;;;2.85;0.90;;;19.00;62.40;;;;;;5035383;28;20268;-18
2023/06/27 02:27:27;;;;;;;2.73;0.90;;;19.00;62.50;;;;;;5024477;28;20029;-18
2023/06/27 02:29:52;;;;;;;2.75;1.00;;;19.00;62.50;;;;;;5014191;28;20029;-18
2023/06/27 02:32:18;;;;;;;2.57;0.90;;;19.00;62.50;;;;;;5028376;28;20511;-18
2023/06/27 02:34:44;;;;;;;2.42;0.90;;;19.00;63.30;;;;;;5039754;28;20544;-18
2023/06/27 02:37:09;;;;;;;3.03;0.90;;;19.00;62.70;;;;;;4991030;28;20411;-18
2023/06/27 02:39:35;;;;;;;2.80;1.02;;;19.00;62.70;;;;;;5039928;28;20021;-19
2023/06/27 02:42:01;;;;;;;3.50;1.30;;;18.90;62.80;;;;;;5029736;28;20305;-18
2023/06/27 02:44:26;;;;;;;2.92;1.10;;;18.90;63.00;;;;;;5028945;28;20095;-18
2023/06/27 02:46:52;;;;;;;4.30;1.20;;;18.90;63.10;;;;;;5026485;28;20195;-18
2023/06/27 02:49:18;;;;;;;2.95;1.00;;;18.90;63.10;;;;;;5036361;28;20024;-18
2023/06/27 02:51:43;;;;;;;2.83;0.90;;;18.90;63.20;;;;;;5038156;28;20128;-18
2023/06/27 02:54:09;;;;;;;3.28;1.27;;;18.90;63.30;;;;;;5007378;28;20037;-18
2023/06/27 02:56:35;;;;;;;2.67;1.10;;;18.80;63.40;;;;;;5038973;28;20029;-18
2023/06/27 02:59:00;;;;;;;3.87;1.17;;;18.80;63.80;;;;;;5023055;28;20029;-18
2023/06/27 03:01:26;;;;;;;3.33;1.27;;;18.80;63.50;;;;;;5027653;28;20037;-18
2023/06/27 03:03:52;;;;;;;2.93;1.13;;;18.80;63.50;;;;;;5030021;28;20048;-18
2023/06/27 03:06:19;;;;;;;2.97;1.13;;;18.80;63.60;;;;;;5035965;28;20487;-19
2023/06/27 03:08:45;;;;;;;2.83;1.30;;;18.80;63.70;;;;;;5010531;28;20356;-18
2023/06/27 03:11:11;;;;;;;4.10;1.20;;;18.70;63.80;;;;;;5034935;28;20032;-19
2023/06/27 03:13:36;;;;;;;3.38;1.33;;;18.70;63.80;;;;;;5050165;28;20013;-18
2023/06/27 03:16:02;;;;;;;3.30;1.30;;;18.70;63.90;;;;;;5015760;28;20056;-18
2023/06/27 03:18:28;;;;;;;3.40;1.23;;;18.70;64.10;;;;;;5028902;28;20657;-18
2023/06/27 03:20:53;;;;;;;4.10;1.30;;;18.70;64.10;;;;;;5036916;28;20044;-19
2023/06/27 03:23:19;;;;;;;5.07;1.27;;;18.70;64.10;;;;;;5031879;28;20021;-18
2023/06/27 03:25:45;;;;;;;2.57;1.20;;;18.70;64.10;;;;;;5008778;28;20036;-18
2023/06/27 03:28:10;;;;;;;3.53;1.30;;;18.60;64.00;;;;;;5034761;28;20048;-18
2023/06/27 03:30:43;;;;;;;2.57;1.30;;;18.60;64.10;;;;;;5038800;28;20196;-18
2023/06/27 03:33:11;;;;;;;3.42;1.55;;;18.50;64.30;;;;;;5028800;28;20028;-18
2023/06/27 03:35:37;;;;;;;4.72;1.20;;;18.50;64.30;;;;;;5025430;28;20598;-18
2023/06/27 03:38:03;;;;;;;4.87;1.43;;;18.40;64.40;;;;;;5039345;28;20133;-18
2023/06/27 03:40:29;;;;;;;3.50;1.23;;;18.40;64.50;;;;;;4989186;28;20271;-18
2023/06/27 03:42:56;;;;;;;3.05;1.13;;;18.40;64.60;;;;;;5020402;28;20041;-18
2023/06/27 03:45:22;;;;;;;4.07;1.40;;;18.40;64.80;;;;;;5023435;28;20033;-18
2023/06/27 03:47:47;;;;;;;3.50;1.20;;;18.40;65.00;;;;;;5029579;28;20048;-18
2023/06/27 03:50:13;;;;;;;3.38;1.20;;;18.30;64.90;;;;;;5031298;28;20395;-18
2023/06/27 03:52:39;;;;;;;3.00;1.30;;;18.30;65.20;;;;;;5040003;28;20021;-19
2023/06/27 03:55:05;;;;;;;4.90;1.20;;;18.30;65.20;;;;;;5028063;28;20040;-18
2023/06/27 03:57:31;;;;;;;2.60;1.42;;;18.20;65.40;;;;;;5014158;28;20237;-18
2023/06/27 03:59:57;;;;;;;4.47;1.30;;;18.20;65.40;;;;;;5036086;28;20041;-18
2023/06/27 04:02:23;;;;;;;3.90;1.30;;;18.20;65.50;;;;;;5015128;28;20040;-18
2023/06/27 04:04:48;;;;;;;3.27;1.13;;;18.20;65.70;;;;;;5030119;28;20235;-18
2023/06/27 04:07:16;;;;;;;3.37;1.30;;;18.10;65.60;;;;;;5026961;28;20882;-18
2023/06/27 04:09:42;;;;;;;3.90;1.27;;;18.10;65.80;;;;;;5036011;28;20460;-18
2023/06/27 04:12:08;;;;;;;4.70;1.13;;;18.10;66.00;;;;;;5006431;28;20108;-18
2023/06/27 04:14:34;;;;;;;5.57;1.38;;;18.10;66.10;;;;;;5035076;28;20584;-18
2023/06/27 04:17:00;;;;;;;2.30;1.02;;;18.10;66.10;;;;;;5026540;28;20033;-18
2023/06/27 04:19:26;;;;;;;4.17;1.17;;;18.10;66.30;;;;;;5024370;28;20285;-18
2023/06/27 04:21:51;;;;;;;2.67;1.13;;;18.10;66.30;;;;;;5032779;28;20044;-18
2023/06/27 04:24:17;;;;;;;3.00;1.20;;;18.10;66.50;;;;;;5034315;28;20709;-18
2023/06/27 04:26:43;;;;;;;3.20;1.20;;;18.10;67.30;;;;;;5007847;28;20506;-18
2023/06/27 04:29:09;;;;;;;2.67;1.20;;;18.10;66.70;;;;;;5050372;28;20101;-18
2023/06/27 04:31:35;;;;;;;2.58;1.10;;;18.10;66.90;;;;;;5022897;28;20379;-18
2023/06/27 04:34:01;;;;;;;4.68;1.30;;;18.10;66.90;;;;;;5036973;28;20029;-19
2023/06/27 04:36:27;;;;;;;3.03;1.37;;;18.10;67.10;;;;;;5024588;28;20249;-18
2023/06/27 04:38:53;;;;;;;3.58;1.02;;;18.10;67.10;;;;;;5019921;28;20049;-18
2023/06/27 04:41:19;;;;;;;3.97;1.07;;;18.10;67.10;;;;;;5032020;28;20090;-18
2023/06/27 04:43:44;;;;;;;4.32;1.23;;;18.10;67.30;;;;;;5009869;28;20036;-18
2023/06/27 04:46:10;;;;;;;4.00;1.13;;;18.10;67.40;;;;;;5035841;28;20644;-18
2023/06/27 04:48:36;;;;;;;2.93;1.13;;;18.10;67.70;;;;;;5023663;28;20115;-18
2023/06/27 04:51:03;;;;;;;3.73;1.10;;;18.10;67.70;;;;;;5029459;28;20271;-18
2023/06/27 04:53:30;;;;;;;4.95;1.27;;;18.10;67.90;;;;;;5035055;28;20222;-18
2023/06/27 04:55:56;;;;;;;3.10;1.08;;;18.10;68.00;;;;;;5037197;28;20025;-18
2023/06/27 04:58:22;;;;;;;5.45;1.10;;;18.10;68.10;;;;;;5006862;28;20133;-18
2023/06/27 05:00:48;;;;;;;3.33;1.08;;;18.10;68.10;;;;;;4996078;28;20595;-18
2023/06/27 05:03:14;;;;;;;4.17;1.13;;;18.20;68.20;;;;;;5026116;28;20796;-18
2023/06/27 05:05:40;;;;;;;2.97;1.02;;;18.20;68.30;;;;;;5016244;28;20113;-18
2023/06/27 05:08:07;;;;;;;3.20;1.08;;;18.20;68.30;;;;;;5032748;28;20380;-18
2023/06/27 05:10:33;;;;;;;3.85;1.10;;;18.20;68.40;;;;;;5035298;28;20021;-18
2023/06/27 05:13:00;;;;;;;3.10;1.10;;;18.20;68.50;;;;;;5031317;28;20095;-18
2023/06/27 05:15:27;;;;;;;2.75;1.20;;;18.20;68.60;;;;;;4989689;28;20099;-18
2023/06/27 05:18:14;;;;;;;3.03;1.00;;;18.20;68.60;;;;;;5022484;28;20295;-18
2023/06/27 05:20:40;;;;;;;2.75;1.10;;;18.20;70.40;;;;;;5031058;28;20104;-18
2023/06/27 05:23:05;;;;;;;3.92;1.10;;;18.20;68.80;;;;;;5030844;28;20032;-18
2023/06/27 05:25:32;;;;;;;2.70;1.10;;;18.30;68.90;;;;;;5042605;28;20025;-18
2023/06/27 05:27:58;;;;;;;2.28;1.13;;;18.30;69.00;;;;;;5040019;28;20031;-18
2023/06/27 05:30:27;;;;;;;2.83;1.25;;;18.30;69.20;;;;;;5011146;28;20033;-18
2023/06/27 05:32:54;;;;;;;3.47;1.20;;;18.40;69.30;;;;;;5035627;28;20032;-18
2023/06/27 05:35:20;;;;;;;3.42;1.05;;;18.30;69.30;;;;;;5031128;28;20401;-18
2023/06/27 05:37:46;;;;;;;4.30;1.50;;;18.40;69.50;;;;;;5022656;28;20485;-18
2023/06/27 05:40:12;;;;;;;4.78;1.20;;;18.40;69.60;;;;;;5047804;28;20722;-18
2023/06/27 05:42:37;;;;;;;3.50;1.20;;;18.50;69.70;;;;;;5042208;28;20025;-18
2023/06/27 05:45:04;;;;;;;4.35;1.50;;;18.50;69.70;;;;;;5013848;28;20021;-18
2023/06/27 05:47:29;;;;;;;4.10;1.40;;;18.60;69.90;;;;;;5039715;28;20032;-18
2023/06/27 05:49:55;;;;;;;5.73;1.40;;;18.60;70.00;;;;;;5026214;28;20077;-19
2023/06/27 05:52:21;;;;;;;4.05;1.10;;;18.60;70.10;;;;;;5020830;28;20029;-18
2023/06/27 05:54:47;;;;;;;2.90;1.30;;;18.70;70.20;;;;;;5040143;28;20039;-18
2023/06/27 05:57:12;;;;;;;3.58;1.23;;;18.70;70.20;;;;;;5036500;28;20116;-18
2023/06/27 05:59:38;;;;;;;5.50;1.30;;;18.80;70.40;;;;;;5040778;28;20025;-18
2023/06/27 06:02:04;;;;;;;4.22;1.52;;;18.90;70.50;;;;;;5009989;28;20108;-19
2023/06/27 06:04:30;;;;;;;5.03;1.30;;;18.90;70.50;;;;;;5039457;28;20065;-18
2023/06/27 06:06:58;;;;;;;3.70;1.35;;;19.00;70.60;;;;;;5024598;28;20123;-19
2023/06/27 06:09:25;;;;;;;4.28;1.42;;;19.00;70.50;;;;;;5024563;28;20213;-18
2023/06/27 06:11:50;;;;;;;4.40;1.45;;;19.00;70.50;;;;;;5040828;28;20033;-19
2023/06/27 06:14:16;;;;;;;3.93;1.53;;;19.10;70.50;;;;;;5037078;28;20558;-19
2023/06/27 06:16:42;;;;;;;5.10;1.48;;;19.20;70.60;;;;;;5039792;28;20032;-18
2023/06/27 06:19:08;;;;;;;3.30;1.30;;;19.20;70.60;;;;;;5006941;28;20234;-19
2023/06/27 06:21:33;;;;;;;3.60;1.33;;;19.30;70.80;;;;;;5032666;28;20060;-18
2023/06/27 06:23:59;;;;;;;4.55;1.50;;;19.40;71.00;;;;;;5021895;28;20041;-19
2023/06/27 06:26:25;;;;;;;4.33;1.47;;;19.40;70.90;;;;;;5038453;28;20427;-19
2023/06/27 06:28:51;;;;;;;3.20;1.40;;;19.50;71.00;;;;;;5038518;28;20036;-19
2023/06/27 06:31:18;;;;;;;3.92;1.33;;;19.60;71.20;;;;;;5033151;28;20051;-18
2023/06/27 06:33:45;;;;;;;6.83;1.53;;;19.70;71.30;;;;;;5009955;28;20029;-18
2023/06/27 06:36:11;;;;;;;4.20;1.33;;;19.80;71.30;;;;;;5036816;28;20087;-18
2023/06/27 06:38:37;;;;;;;4.25;1.40;;;19.90;71.20;;;;;;5027690;28;20075;-18
2023/06/27 06:41:03;;;;;;;3.50;1.25;;;20.00;71.30;;;;;;5020195;28;20231;-19
2023/06/27 06:43:29;;;;;;;3.97;1.40;;;20.10;71.30;;;;;;5039912;28;20025;-18
2023/06/27 06:45:54;;;;;;;2.05;1.00;;;20.20;71.30;;;;;;5039546;28;20043;-19
2023/06/27 06:48:21;;;;;;;5.20;1.40;;;20.40;71.30;;;;;;5007652;28;20048;-18
2023/06/27 06:50:49;;;;;;;3.42;1.48;;;20.50;71.30;;;;;;5040288;28;20441;-19
2023/06/27 06:53:15;;;;;;;3.22;1.25;;;20.60;71.30;;;;;;5027847;28;20036;-18
2023/06/27 06:55:41;;;;;;;4.03;1.40;;;20.70;71.30;;;;;;5019245;28;20029;-19
2023/06/27 06:58:06;;;;;;;3.37;1.33;;;20.90;71.30;;;;;;5037638;28;20086;-18
2023/06/27 07:00:32;;;;;;;4.15;1.50;;;21.00;71.30;;;;;;5031594;28;20540;-18
2023/06/27 07:02:58;;;;;;;2.77;1.43;;;21.10;71.30;;;;;;5035695;28;20037;-18
2023/06/27 07:05:24;;;;;;;2.35;1.30;;;21.30;71.10;;;;;;5011836;28;20060;-18
2023/06/27 07:07:50;;;;;;;5.83;1.50;;;21.40;71.00;;;;;;5025800;28;20032;-19
2023/06/27 07:10:16;;;;;;;3.80;1.10;;;21.50;70.70;;;;;;5037628;28;20031;-19
2023/06/27 07:12:41;;;;;;;2.88;1.15;;;21.70;70.60;;;;;;5019219;28;20076;-19
2023/06/27 07:15:09;;;;;;;2.83;1.10;;;21.70;70.40;;;;;;5038840;28;20020;-18
2023/06/27 07:17:35;;;;;;;2.00;1.30;;;21.80;70.10;;;;;;5029053;28;20029;-19
2023/06/27 07:20:03;;;;;;;3.97;1.33;;;21.90;69.90;;;;;;5004416;28;20939;-19
2023/06/27 07:22:29;;;;;;;4.50;1.40;;;22.00;69.80;;;;;;5039383;28;20784;-19
2023/06/27 07:24:55;;;;;;;4.50;1.47;;;22.10;69.90;;;;;;5025815;28;20045;-19
2023/06/27 07:27:21;;;;;;;3.83;1.50;;;22.20;69.80;;;;;;5022101;28;20932;-18
2023/06/27 07:29:47;;;;;;;5.53;1.88;;;22.30;69.80;;;;;;5036473;28;20021;-19
2023/06/27 07:32:13;;;;;;;3.10;1.30;;;22.40;69.70;;;;;;5038528;28;20025;-18
2023/06/27 07:34:39;;;;;;;3.65;1.30;;;22.50;69.50;;;;;;5035126;28;20832;-19
2023/06/27 07:37:06;;;;;;;4.47;1.50;;;22.60;69.50;;;;;;5004627;28;20239;-19
2023/06/27 07:39:32;;;;;;;3.50;1.40;;;22.70;69.20;;;;;;5027664;28;20039;-19
2023/06/27 07:41:58;;;;;;;4.88;1.50;;;22.80;69.00;;;;;;5015733;28;20206;-18
2023/06/27 07:44:25;;;;;;;3.95;1.20;;;22.90;69.00;;;;;;5015989;28;20153;-19
2023/06/27 07:46:51;;;;;;;3.40;1.38;;;23.00;68.90;;;;;;5034302;28;20440;-19
2023/06/27 07:49:16;;;;;;;2.85;1.23;;;23.10;68.70;;;;;;5030575;28;20025;-18
2023/06/27 07:51:42;;;;;;;3.03;1.20;;;23.20;68.40;;;;;;5019652;28;20036;-19
2023/06/27 07:54:09;;;;;;;3.22;1.40;;;23.30;68.30;;;;;;5024595;28;20122;-18
2023/06/27 07:56:35;;;;;;;3.28;1.50;;;23.40;68.20;;;;;;5038268;28;20104;-19
2023/06/27 07:59:04;;;;;;;4.07;1.58;;;23.50;68.00;;;;;;5020478;28;20137;-19
2023/06/27 08:01:30;;;;;;;2.73;1.40;;;23.70;67.80;;;;;;5038376;28;20044;-18
2023/06/27 08:03:56;;;;;;;2.97;1.35;;;23.70;67.50;;;;;;5032136;28;20796;-18
2023/06/27 08:06:21;;;;;;;3.37;1.40;;;23.80;67.30;;;;;;5039223;28;20017;-19
2023/06/27 08:08:47;;;;;;;3.67;1.30;;;23.90;67.00;;;;;;5007816;28;20025;-19
2023/06/27 08:11:13;;;;;;;3.90;1.40;;;24.00;66.80;;;;;;5036167;28;20037;-19
2023/06/27 08:13:41;;;;;;;2.47;1.13;;;24.00;66.50;;;;;;5032447;28;20027;-19
2023/06/27 08:16:10;;;;;;;3.15;1.40;;;24.10;66.50;;;;;;5026447;28;20029;-19
2023/06/27 08:18:36;;;;;;;3.03;1.23;;;24.20;65.90;;;;;;5036771;28;20033;-19
2023/06/27 08:21:03;;;;;;;2.42;1.20;;;24.30;66.10;;;;;;5028375;28;20053;-18
2023/06/27 08:23:29;;;;;;;3.77;1.30;;;24.40;66.70;;;;;;5010235;28;20025;-19
2023/06/27 08:25:54;;;;;;;4.95;1.30;;;24.50;67.40;;;;;;5034897;28;20760;-18
2023/06/27 08:28:20;;;;;;;3.67;1.10;;;24.80;67.70;;;;;;5036533;28;20017;-18
2023/06/27 08:30:46;;;;;;;2.05;1.20;;;25.10;68.10;;;;;;5017317;28;20687;-19
2023/06/27 08:33:12;;;;;;;2.22;1.10;;;25.40;67.80;;;;;;5036367;28;20047;-18
2023/06/27 08:35:39;;;;;;;3.60;1.15;;;25.70;67.00;;;;;;5028266;28;20483;-19
2023/06/27 08:38:05;;;;;;;4.07;1.80;;;26.00;66.60;;;;;;5007879;28;21006;-18
2023/06/27 08:40:35;;;;;;;3.50;1.30;;;26.20;66.20;;;;;;5035672;28;20033;-18
2023/06/27 08:43:01;;;;;;;2.67;1.27;;;26.50;65.10;;;;;;5018247;28;20292;-18
2023/06/27 08:45:27;;;;;;;1.65;1.02;;;26.80;65.30;;;;;;5022826;28;20785;-18
2023/06/27 08:47:53;;;;;;;3.03;1.50;;;26.90;64.50;;;;;;5033765;28;20640;-18
2023/06/27 08:50:21;;;;;;;3.38;1.20;;;27.10;64.00;;;;;;5035303;28;20066;-19
2023/06/27 08:52:57;;;;;;;3.00;1.20;;;27.40;63.30;;;;;;5028203;28;20470;-19
2023/06/27 08:55:35;;;;;;;2.53;1.23;;;27.60;61.60;;;;;;5009478;28;20032;-19
2023/06/27 08:58:04;;;;;;;2.97;1.27;;;27.80;61.10;;;;;;5034806;28;20649;-19
2023/06/27 09:00:31;;;;;;;2.53;1.50;;;28.00;62.70;;;;;;5002247;28;20122;-18
2023/06/27 09:02:57;;;;;;;2.05;1.20;;;28.20;62.10;;;;;;5034106;28;20335;-19
2023/06/27 09:05:23;;;;;;;3.85;1.38;;;28.40;61.90;;;;;;5036953;28;20075;-19
2023/06/27 09:07:49;;;;;;;2.60;1.13;;;28.70;61.40;;;;;;5025817;28;20028;-19
2023/06/27 09:10:15;;;;;;;3.23;1.13;;;28.90;61.10;;;;;;5006409;28;20035;-18
2023/06/27 09:12:45;;;;;;;2.15;1.20;;;29.10;60.70;;;;;;5036543;28;20021;-19
2023/06/27 09:15:11;;;;;;;2.20;1.13;;;29.40;59.50;;;;;;5009797;28;20203;-19
2023/06/27 09:17:38;;;;;;;2.30;1.20;;;29.60;60.10;;;;;;5034015;28;20041;-19
2023/06/27 09:20:05;;;;;;;2.80;1.20;;;29.90;58.50;;;;;;5039352;28;20052;-19
2023/06/27 09:22:31;;;;;;;2.08;1.20;;;30.00;58.10;;;;;;5028981;28;20063;-19
2023/06/27 09:25:17;;;;;;;3.60;1.40;;;30.20;57.80;;;;;;5034523;28;20144;-18
2023/06/27 09:27:43;;;;;;;2.90;1.20;;;30.40;56.00;;;;;;5004546;28;20037;-19
2023/06/27 09:30:11;;;;;;;2.57;1.20;;;30.50;56.60;;;;;;5032779;28;20021;-19
2023/06/27 09:32:56;;;;;;;3.20;0.90;;;30.60;56.00;;;;;;5017497;28;20029;-19
2023/06/27 09:35:23;;;;;;;1.60;1.00;;;30.80;53.40;;;;;;5037285;28;20143;-19
2023/06/27 09:37:49;;;;;;;1.85;1.17;;;30.90;54.90;;;;;;5027574;28;20183;-19
2023/06/27 09:40:25;;;;;;;2.38;1.27;;;31.10;54.80;;;;;;5037809;28;20057;-19
2023/06/27 09:42:55;;;;;;;2.03;1.20;;;31.30;53.10;;;;;;5020965;28;20037;-19
2023/06/27 09:45:23;;;;;;;2.75;1.25;;;31.40;53.40;;;;;;5037123;28;20788;-18
2023/06/27 09:47:55;;;;;;;2.85;1.20;;;31.50;52.70;;;;;;5015758;28;20749;-19
2023/06/27 09:50:31;;;;;;;2.03;1.00;;;31.50;51.40;;;;;;5037950;28;20101;-19
2023/06/27 09:53:02;;;;;;;1.67;1.00;;;31.50;49.10;;;;;;5023467;28;20028;-19
2023/06/27 09:55:28;;;;;;;1.73;1.00;;;31.60;50.50;;;;;;5035262;28;20043;-19
2023/06/27 09:57:56;;;;;;;3.05;1.10;;;31.70;51.30;;;;;;5003498;28;20203;-19
2023/06/27 10:00:22;;;;;;;1.48;1.00;;;31.80;51.00;;;;;;5032823;28;20043;-19
2023/06/27 10:02:49;;;;;;;2.70;0.98;;;31.80;50.30;;;;;;5017088;28;20112;-19
2023/06/27 10:05:16;;;;;;;1.58;1.10;;;32.00;49.90;;;;;;5035641;28;20802;-19
2023/06/27 10:07:44;;;;;;;1.77;1.00;;;32.00;49.00;;;;;;5030648;28;20024;-19
2023/06/27 10:10:10;;;;;;;3.47;1.00;;;31.90;48.60;;;;;;5033149;28;20240;-19
2023/06/27 10:12:36;;;;;;;2.90;1.10;;;31.90;48.60;;;;;;5011499;28;20028;-19
2023/06/27 10:15:04;;;;;;;1.83;1.10;;;31.90;48.20;;;;;;5035683;28;20048;-19
2023/06/27 10:17:30;;;;;;;1.60;1.10;;;31.90;47.90;;;;;;5024813;28;20128;-19
2023/06/27 10:19:57;;;;;;;1.87;1.00;;;31.90;47.70;;;;;;5035798;28;20029;-19
2023/06/27 10:22:28;;;;;;;1.63;1.00;;;31.80;47.60;;;;;;5039793;28;20083;-19
2023/06/27 10:24:59;;;;;;;3.05;1.00;;;31.80;47.00;;;;;;5045547;28;20025;-19
2023/06/27 10:27:25;;;;;;;2.38;1.08;;;31.70;46.30;;;;;;5021026;28;20047;-18
2023/06/27 10:29:51;;;;;;;2.80;0.95;;;31.60;46.20;;;;;;5005532;28;20860;-20
2023/06/27 10:32:18;;;;;;;1.70;1.07;;;31.40;46.00;;;;;;5022920;28;20029;-19
2023/06/27 10:34:45;;;;;;;2.40;1.00;;;31.20;45.70;;;;;;5036375;28;20649;-19
2023/06/27 10:37:25;;;;;;;1.48;0.95;;;31.00;45.40;;;;;;5038933;28;20449;-18
2023/06/27 10:40:04;;;;;;;3.33;0.90;;;30.70;45.10;;;;;;5029820;28;20032;-19
2023/06/27 10:42:31;;;;;;;2.08;0.93;;;30.40;44.60;;;;;;5038699;28;20315;-19
2023/06/27 10:45:06;;;;;;;1.17;0.90;;;30.10;44.80;;;;;;5024349;28;20386;-18
2023/06/27 10:47:42;;;;;;;1.35;1.00;;;29.80;44.90;;;;;;5023524;28;20032;-19
2023/06/27 10:50:13;;;;;;;1.08;0.90;;;29.40;44.70;;;;;;5036676;28;20503;-19
2023/06/27 10:52:40;;;;;;;2.03;1.00;;;29.10;45.20;;;;;;5033569;28;20419;-19
2023/06/27 10:55:15;;;;;;;2.28;0.90;;;28.80;45.60;;;;;;5035712;28;20033;-19
2023/06/27 10:57:56;;;;;;;1.45;0.85;;;28.60;45.70;;;;;;5054122;28;20139;-19
2023/06/27 11:00:29;;;;;;;3.17;0.80;;;28.50;45.90;;;;;;5004750;28;20235;-19
2023/06/27 11:03:01;;;;;;;1.63;0.90;;;28.30;46.20;;;;;;5022910;28;20035;-19
2023/06/27 11:05:42;;;;;;;2.57;1.00;;;28.30;46.70;;;;;;5036252;28;20025;-19
2023/06/27 11:08:10;;;;;;;2.88;1.00;;;28.20;46.70;;;;;;5037775;28;20483;-19
2023/06/27 11:10:37;;;;;;;1.55;1.00;;;28.20;47.50;;;;;;5053067;28;20868;-19
2023/06/27 11:13:21;;;;;;;2.97;1.13;;;28.30;47.70;;;;;;5038678;28;20873;-19
2023/06/27 11:15:48;;;;;;;2.47;1.08;;;28.40;47.10;;;;;;5021686;28;20647;-19
2023/06/27 11:18:15;;;;;;;2.23;0.90;;;28.50;47.70;;;;;;5020267;28;20107;-19
2023/06/27 11:20:42;;;;;;;1.30;0.80;;;28.50;47.60;;;;;;5024204;28;20070;-19
2023/06/27 11:23:08;;;;;;;1.70;1.00;;;28.60;47.50;;;;;;5036124;28;20025;-19
2023/06/27 11:25:38;;;;;;;7.72;1.10;;;28.60;47.30;;;;;;5022320;28;20111;-19
2023/06/27 11:28:05;;;;;;;1.80;0.90;;;28.60;46.90;;;;;;5040691;28;20099;-18
2023/06/27 11:30:31;;;;;;;2.10;0.90;;;28.50;46.70;;;;;;5006972;28;20077;-19
2023/06/27 11:32:57;;;;;;;1.27;0.90;;;28.40;46.40;;;;;;5021456;28;20032;-18
2023/06/27 11:35:23;;;;;;;1.75;0.90;;;28.30;46.40;;;;;;5036926;28;20033;-19
2023/06/27 11:37:56;;;;;;;2.75;1.05;;;28.10;46.20;;;;;;5036974;28;20029;-19
2023/06/27 11:40:27;;;;;;;2.40;1.02;;;28.00;46.00;;;;;;5036843;28;20487;-19
2023/06/27 11:43:19;;;;;;;1.97;0.93;;;27.90;46.40;;;;;;5014504;28;20382;-19
2023/06/27 11:45:46;;;;;;;1.15;0.90;;;27.80;46.40;;;;;;5004239;28;20323;-19
2023/06/27 11:48:12;;;;;;;1.52;0.95;;;27.80;46.80;;;;;;5038601;28;20020;-19
2023/06/27 11:50:53;;;;;;;2.92;1.00;;;27.80;47.20;;;;;;5014722;28;20561;-19
2023/06/27 11:53:28;;;;;;;1.73;0.90;;;27.90;47.60;;;;;;5037313;28;20099;-19
2023/06/27 11:55:55;;;;;;;2.75;1.13;;;28.00;47.70;;;;;;5017432;28;20045;-19
2023/06/27 11:58:32;;;;;;;1.45;0.90;;;28.20;47.90;;;;;;5029354;28;20060;-19
2023/06/27 12:01:01;;;;;;;3.53;0.80;;;28.40;47.40;;;;;;5005086;28;20091;-19
2023/06/27 12:03:28;;;;;;;1.52;1.00;;;28.50;47.80;;;;;;5022636;28;20033;-19
2023/06/27 12:05:56;;;;;;;1.40;1.00;;;28.60;48.00;;;;;;5028036;28;20063;-19
2023/06/27 12:08:28;;;;;;;1.25;0.93;;;28.80;47.80;;;;;;5024751;28;20061;-19
2023/06/27 12:10:56;;;;;;;2.17;0.90;;;28.90;46.70;;;;;;5034940;28;20175;-19
2023/06/27 12:13:29;;;;;;;1.55;1.00;;;29.00;46.70;;;;;;5045343;28;20036;-19
2023/06/27 12:15:55;;;;;;;1.98;1.00;;;29.10;46.20;;;;;;5031838;28;20060;-19
2023/06/27 12:18:28;;;;;;;1.20;0.90;;;29.20;46.70;;;;;;4984982;28;20458;-19
2023/06/27 12:20:55;;;;;;;2.03;0.90;;;29.20;46.40;;;;;;5029466;28;20515;-19
2023/06/27 12:23:22;;;;;;;1.77;0.90;;;29.20;46.50;;;;;;5036344;28;20045;-19
2023/06/27 12:25:47;;;;;;;1.60;1.10;;;29.30;46.70;;;;;;5033108;28;20255;-19
2023/06/27 12:28:14;;;;;;;2.67;0.93;;;29.40;46.90;;;;;;5030204;28;20078;-20
2023/06/27 12:30:40;;;;;;;1.55;0.80;;;29.60;47.20;;;;;;5033057;28;20110;-19
2023/06/27 12:33:06;;;;;;;2.40;1.00;;;29.70;47.00;;;;;;5009770;28;20071;-19
2023/06/27 12:35:32;;;;;;;1.87;0.90;;;29.90;46.70;;;;;;5016808;28;20082;-19
2023/06/27 12:37:58;;;;;;;1.30;0.85;;;30.00;46.30;;;;;;5036032;28;20033;-19
2023/06/27 12:40:24;;;;;;;1.70;1.00;;;30.10;46.00;;;;;;5036150;28;20055;-19
2023/06/27 12:42:52;;;;;;;1.80;0.90;;;30.10;45.80;;;;;;5028155;28;21449;-19
2023/06/27 12:45:19;;;;;;;0.83;0.83;;;30.20;45.60;;;;;;5037382;28;20446;-19
2023/06/27 12:47:45;;;;;;;3.35;1.10;;;30.30;45.00;;;;;;5003565;28;20029;-19
2023/06/27 12:50:16;;;;;;;1.13;0.77;;;30.30;44.70;;;;;;5037209;28;20025;-19